This is the latest recevied weather packets stored in our database for station/object OK1TOM-6. If no packets are shown the sender has not sent any weather packets the latest 10 day(s).
| Time | Temp. | Humidity | Pressure | Rain* | Wind** | Luminosity | Snow |
|---|---|---|---|---|---|---|---|
| 1777758963 | 8.89° C | 62% | 1021 hPa | 0 mm | - | - | - |
| 1777758360 | 9.44° C | 62% | 1021.1 hPa | 0 mm | - | - | - |
| 1777757756 | 9.44° C | 61% | 1021.2 hPa | 0 mm | - | - | - |
| 1777757153 | 10° C | 59% | 1021.2 hPa | 0 mm | - | - | - |
| 1777756549 | 10° C | 59% | 1021.2 hPa | 0 mm | - | - | - |
| 1777755946 | 10.56° C | 58% | 1021.4 hPa | 0 mm | - | - | - |
| 1777755342 | 10.56° C | 57% | 1021.4 hPa | 0 mm | - | - | - |
| 1777754739 | 11.11° C | 55% | 1021.5 hPa | 0 mm | - | - | - |
| 1777754136 | 10.56° C | 57% | 1021.4 hPa | 0 mm | - | - | - |
| 1777753532 | 11.11° C | 55% | 1021.5 hPa | 0 mm | - | - | - |
| 1777752929 | 11.11° C | 55% | 1021.5 hPa | 0 mm | - | - | - |
| 1777752325 | 11.67° C | 55% | 1021.5 hPa | 0 mm | - | - | - |
| 1777751722 | 11.67° C | 55% | 1021.5 hPa | 0 mm | - | - | - |
| 1777751119 | 11.67° C | 54% | 1021.7 hPa | 0 mm | - | - | - |
| 1777750515 | 11.67° C | 54% | 1021.7 hPa | 0 mm | - | - | - |
| 1777749972 | 12.22° C | 54% | 1021.7 hPa | 0 mm | - | - | - |
| 1777749368 | 12.22° C | 53% | 1021.7 hPa | 0 mm | - | - | - |
| 1777748765 | 12.22° C | 53% | 1021.8 hPa | 0 mm | - | - | - |
| 1777748162 | 12.78° C | 53% | 1021.7 hPa | 0 mm | - | - | - |
| 1777747558 | 12.78° C | 53% | 1021.7 hPa | 0 mm | - | - | - |
| 1777746955 | 13.33° C | 53% | 1021.7 hPa | 0 mm | - | - | - |
| 1777746351 | 13.89° C | 53% | 1021.5 hPa | 0 mm | - | - | - |
| 1777745748 | 12.78° C | 58% | 1021.6 hPa | 0 mm | - | - | - |
| 1777745145 | 13.33° C | 57% | 1021.7 hPa | 0 mm | - | - | - |
| 1777744541 | 14.44° C | 53% | 1021.7 hPa | 0 mm | - | - | - |
* Rain latest hour (hover to see other rain measurements)
** Current wind speed in m/s (hover to see current wind gust speed)